Time;durP1;ratioP1;P1;durP2;ratioP2;P2;SDS_P1;SDS_P2;PMS_P1;PMS_P2;Temp;Humidity;BMP_temperature;BMP_pressure;BME280_temperature;BME280_humidity;BME280_pressure;Samples;Min_cycle;Max_cycle;Signal;HPM_P1;HPM_P2
2022/01/15 00:02:47;;;;;;;35.33;9.83;;;;;;;-0.08;90.99;99655.68;2172835;82;20937;-79
2022/01/15 00:05:48;;;;;;;32.00;9.47;;;;;;;-0.11;91.11;99646.49;2172820;82;20948;-79
2022/01/15 00:08:48;;;;;;;27.80;9.70;;;;;;;-0.13;91.04;99639.09;2172844;82;21641;-80
2022/01/15 00:11:48;;;;;;;27.77;8.70;;;;;;;-0.15;91.09;99632.97;2172969;82;20926;-79
2022/01/15 00:14:50;;;;;;;33.07;9.07;;;;;;;-0.17;91.12;99637.11;2172842;82;20976;-79
2022/01/15 00:20:53;;;;;;;28.73;8.97;;;;;;;-0.18;91.11;99637.89;2162543;82;21368;-79
2022/01/15 00:23:54;;;;;;;39.03;9.23;;;;;;;-0.20;91.13;99643.32;2172763;82;20977;-79
2022/01/15 00:26:54;;;;;;;28.73;8.50;;;;;;;-0.20;91.18;99644.60;2172286;81;20992;-79
2022/01/15 00:29:55;;;;;;;26.37;8.17;;;;;;;-0.22;91.13;99651.70;2184485;80;21012;-79
2022/01/15 00:32:55;;;;;;;28.17;8.43;;;;;;;-0.24;91.17;99646.86;2189566;81;20979;-79
2022/01/15 00:35:56;;;;;;;27.70;8.13;;;;;;;-0.26;91.17;99642.02;2189648;81;20964;-79
2022/01/15 00:38:56;;;;;;;29.23;8.53;;;;;;;-0.30;91.16;99642.60;2189499;81;21344;-79
2022/01/15 00:41:57;;;;;;;38.33;8.67;;;;;;;-0.33;91.23;99640.72;2189552;81;20964;-79
2022/01/15 00:44:59;;;;;;;32.00;8.17;;;;;;;-0.36;91.41;99645.25;2189109;81;20984;-77
2022/01/15 00:48:00;;;;;;;30.73;8.30;;;;;;;-0.39;91.28;99650.18;2189551;81;20968;-80
2022/01/15 00:51:00;;;;;;;37.07;7.83;;;;;;;-0.39;91.29;99655.70;2189515;81;21444;-80
2022/01/15 00:54:00;;;;;;;27.43;8.00;;;;;;;-0.42;91.33;99655.10;2189455;81;21335;-79
2022/01/15 00:57:01;;;;;;;33.57;8.50;;;;;;;-0.43;91.33;99658.45;2189473;81;20990;-79
2022/01/15 01:00:01;;;;;;;26.93;8.70;;;;;;;-0.45;91.45;99659.14;2189383;81;21028;-80
2022/01/15 01:03:02;;;;;;;28.53;8.67;;;;;;;-0.45;91.50;99662.98;2189394;81;20991;-79
2022/01/15 01:06:02;;;;;;;31.97;7.70;;;;;;;-0.49;91.27;99659.32;2189016;81;20948;-79
2022/01/15 01:09:03;;;;;;;31.17;8.40;;;;;;;-0.52;91.48;99665.92;2189539;81;20996;-79
2022/01/15 01:12:20;;;;;;;30.17;7.27;;;;;;;-0.53;91.53;99661.58;2189584;81;20964;-79
2022/01/15 01:20:04;;;;;;;29.80;7.90;;;;;;;-0.61;91.36;99664.01;2189424;81;21367;-78
2022/01/15 01:22:49;;;;;;;26.27;6.77;;;;;;;-0.67;91.46;99666.65;2186663;81;20956;-80
2022/01/15 01:25:02;;;;;;;27.40;7.93;;;;;;;-0.70;91.76;99663.88;2186485;81;20948;-79
2022/01/15 01:28:09;;;;;;;30.77;8.03;;;;;;;-0.72;91.79;99668.01;2188110;81;21323;-79
2022/01/15 01:31:16;;;;;;;29.30;7.57;;;;;;;-0.73;91.75;99666.63;2171807;81;21116;-80
2022/01/15 01:34:13;;;;;;;32.33;8.67;;;;;;;-0.75;91.84;99670.36;2171710;81;21368;-79
2022/01/15 01:37:20;;;;;;;38.23;9.60;;;;;;;-0.77;91.99;99674.50;2172207;81;20972;-78
2022/01/15 01:40:31;;;;;;;28.50;7.73;;;;;;;-0.78;91.97;99671.43;2172060;81;21289;-80
2022/01/15 01:46:49;;;;;;;34.77;7.80;;;;;;;-0.79;91.91;99669.66;2162264;82;21000;-78
2022/01/15 01:49:42;;;;;;;33.83;9.10;;;;;;;-0.78;92.15;99675.67;2172094;81;20964;-78
2022/01/15 01:52:43;;;;;;;34.10;10.00;;;;;;;-0.81;92.04;99668.66;2172818;82;20957;-78
2022/01/15 01:55:43;;;;;;;30.43;10.00;;;;;;;-0.83;91.93;99665.09;2172852;82;20992;-79
2022/01/15 01:58:44;;;;;;;44.03;11.27;;;;;;;-0.83;92.19;99668.05;2172571;81;21032;-79
2022/01/15 02:01:44;;;;;;;28.23;10.33;;;;;;;-0.86;92.25;99665.28;2172086;82;21000;-79
2022/01/15 02:04:45;;;;;;;31.47;10.27;;;;;;;-0.85;92.36;99669.23;2172220;82;20922;-79
2022/01/15 02:07:45;;;;;;;40.83;10.93;;;;;;;-0.86;92.19;99671.30;2172411;81;20965;-79
2022/01/15 02:10:46;;;;;;;30.93;8.43;;;;;;;-0.87;92.29;99673.33;2172651;81;20949;-79
2022/01/15 02:13:46;;;;;;;24.17;7.07;;;;;;;-0.86;92.36;99685.39;2172863;81;20972;-78
2022/01/15 02:16:46;;;;;;;39.80;9.00;;;;;;;-0.86;92.60;99678.09;2172738;81;20977;-78
2022/01/15 02:26:26;;;;;;;35.13;9.60;;;;;;;-0.90;92.48;99673.11;2172958;82;21005;-79
2022/01/15 02:29:26;;;;;;;35.90;9.23;;;;;;;-0.90;92.72;99669.27;2172701;82;21001;-79
2022/01/15 02:32:28;;;;;;;35.23;10.33;;;;;;;-0.90;92.66;99674.39;2161678;82;20996;-79
2022/01/15 02:35:29;;;;;;;27.63;9.13;;;;;;;-0.89;92.62;99672.72;2172709;81;20968;-78
2022/01/15 02:38:30;;;;;;;32.23;8.70;;;;;;;-0.91;92.62;99677.74;2173017;81;20961;-78
2022/01/15 02:41:30;;;;;;;34.30;8.77;;;;;;;-0.92;92.62;99673.39;2172996;82;21019;-79
2022/01/15 02:44:37;;;;;;;26.73;9.03;;;;;;;-0.92;92.79;99670.84;2172974;82;20972;-80
2022/01/15 02:50:52;;;;;;;30.63;8.67;;;;;;;-0.93;92.65;99678.02;2172955;82;21352;-78
2022/01/15 02:53:55;;;;;;;36.63;9.10;;;;;;;-0.92;92.77;99683.65;2173024;82;21004;-79
2022/01/15 02:56:56;;;;;;;29.93;7.83;;;;;;;-0.91;92.63;99678.13;2173017;82;20913;-80
2022/01/15 02:59:56;;;;;;;32.23;8.20;;;;;;;-0.93;92.67;99664.32;2172994;82;21000;-79
2022/01/15 03:02:57;;;;;;;32.73;9.07;;;;;;;-0.96;92.71;99669.73;2172516;81;21161;-80
2022/01/15 03:05:58;;;;;;;32.20;9.33;;;;;;;-0.97;92.68;99660.27;2173088;82;20976;-79
2022/01/15 03:08:59;;;;;;;32.20;9.30;;;;;;;-0.98;92.57;99666.56;2172909;81;20968;-78
2022/01/15 03:12:02;;;;;;;34.63;8.87;;;;;;;-1.00;92.68;99655.31;2173066;81;20981;-78
2022/01/15 03:15:02;;;;;;;35.77;9.80;;;;;;;-1.03;92.65;99660.23;2173040;81;20971;-79
2022/01/15 03:18:03;;;;;;;37.80;10.70;;;;;;;-1.04;92.89;99664.85;2173020;82;20960;-78
2022/01/15 03:21:03;;;;;;;31.13;9.57;;;;;;;-1.07;92.71;99658.23;2172694;82;21043;-79
2022/01/15 03:24:03;;;;;;;39.50;11.67;;;;;;;-1.08;92.80;99659.91;2172701;82;21023;-79
2022/01/15 03:27:04;;;;;;;41.07;10.63;;;;;;;-1.09;92.94;99659.41;2172429;81;21016;-79
2022/01/15 03:30:04;;;;;;;39.60;10.07;;;;;;;-1.11;92.80;99657.52;2172572;81;21028;-79
2022/01/15 03:33:05;;;;;;;39.40;10.00;;;;;;;-1.13;92.89;99663.81;2173031;81;20968;-78
2022/01/15 03:36:05;;;;;;;34.17;9.70;;;;;;;-1.14;92.90;99660.75;2173032;81;20957;-79
2022/01/15 03:39:07;;;;;;;28.77;9.73;;;;;;;-1.14;93.01;99663.70;2173066;82;20969;-78
2022/01/15 03:42:12;;;;;;;32.13;9.93;;;;;;;-1.14;93.02;99676.52;2172774;81;21000;-79
2022/01/15 03:45:10;;;;;;;39.37;10.30;;;;;;;-1.13;93.09;99683.42;2172724;81;21000;-79
2022/01/15 03:48:10;;;;;;;34.00;10.90;;;;;;;-1.13;92.97;99683.03;2173031;82;20992;-79
2022/01/15 03:51:11;;;;;;;38.83;10.23;;;;;;;-1.13;93.01;99689.83;2173013;81;20953;-79
2022/01/15 03:54:11;;;;;;;38.77;10.67;;;;;;;-1.13;92.95;99685.98;2172783;82;20953;-78
2022/01/15 03:57:12;;;;;;;32.07;10.17;;;;;;;-1.14;92.96;99677.80;2172812;81;20945;-79
2022/01/15 04:00:12;;;;;;;32.40;9.57;;;;;;;-1.12;93.03;99678.80;2172687;81;20997;-78
2022/01/15 04:03:13;;;;;;;40.37;10.60;;;;;;;-1.11;93.10;99672.50;2172762;82;20996;-79
2022/01/15 04:06:13;;;;;;;40.23;10.93;;;;;;;-1.07;93.07;99676.17;2173170;81;21311;-80
2022/01/15 04:09:14;;;;;;;38.33;12.23;;;;;;;-1.09;93.13;99679.91;2172842;81;20970;-79
2022/01/15 04:12:14;;;;;;;29.17;11.17;;;;;;;-1.10;92.97;99678.52;2172729;82;20933;-80
2022/01/15 04:15:16;;;;;;;32.73;11.43;;;;;;;-1.13;92.90;99676.62;2173016;81;21361;-80
2022/01/15 04:18:16;;;;;;;41.47;12.17;;;;;;;-1.15;92.87;99677.30;2172623;81;20975;-81
2022/01/15 04:21:17;;;;;;;32.07;11.50;;;;;;;-1.18;92.82;99684.38;2172440;82;20960;-79
2022/01/15 04:24:20;;;;;;;38.17;12.17;;;;;;;-1.20;92.71;99685.05;2172933;81;21332;-79
2022/01/15 04:27:22;;;;;;;36.77;11.23;;;;;;;-1.23;92.88;99693.41;2172817;81;21379;-79
2022/01/15 04:30:24;;;;;;;35.30;10.60;;;;;;;-1.25;92.85;99696.64;2182127;81;21046;-80
2022/01/15 04:33:25;;;;;;;41.43;11.67;;;;;;;-1.25;92.64;99700.48;2189298;81;20963;-79
2022/01/15 04:36:25;;;;;;;33.23;12.67;;;;;;;-1.28;92.65;99697.31;2189550;81;20949;-80
2022/01/15 04:39:28;;;;;;;30.60;11.10;;;;;;;-1.29;92.67;99699.38;2189389;81;20968;-79
2022/01/15 04:42:29;;;;;;;38.70;11.80;;;;;;;-1.31;92.73;99691.97;2189191;81;20999;-79
2022/01/15 04:45:30;;;;;;;45.83;13.43;;;;;;;-1.33;92.76;99693.14;2189590;81;20999;-78
2022/01/15 04:48:30;;;;;;;23.10;9.40;;;;;;;-1.34;92.60;99693.92;2189360;81;20956;-79
2022/01/15 04:51:31;;;;;;;28.80;10.43;;;;;;;-1.35;92.78;99687.02;2188658;81;20960;-79
2022/01/15 04:54:31;;;;;;;39.37;10.90;;;;;;;-1.35;92.70;99693.81;2188457;81;20999;-80
2022/01/15 04:57:32;;;;;;;37.80;12.30;;;;;;;-1.36;92.67;99703.17;2189106;81;21027;-80
2022/01/15 05:00:32;;;;;;;36.13;11.93;;;;;;;-1.35;92.74;99698.55;2188981;81;21019;-79
2022/01/15 05:03:33;;;;;;;38.00;11.87;;;;;;;-1.33;92.76;99701.22;2189092;81;20988;-79
2022/01/15 05:06:33;;;;;;;40.47;11.50;;;;;;;-1.34;92.86;99711.86;2188860;81;20913;-80
2022/01/15 05:09:34;;;;;;;33.87;11.40;;;;;;;-1.32;92.88;99714.13;2189141;81;20956;-80
2022/01/15 05:12:43;;;;;;;39.87;11.37;;;;;;;-1.31;92.79;99719.76;2188737;81;20944;-80
2022/01/15 05:15:43;;;;;;;36.97;11.87;;;;;;;-1.27;92.80;99725.10;2188948;81;20948;-79
2022/01/15 05:18:43;;;;;;;35.53;10.63;;;;;;;-1.24;92.75;99734.29;2188354;81;20912;-79
2022/01/15 05:21:44;;;;;;;38.23;12.47;;;;;;;-1.22;92.71;99735.28;2187925;81;20964;-79
2022/01/15 05:24:44;;;;;;;38.33;12.87;;;;;;;-1.20;92.67;99725.66;2187939;81;20944;-80
2022/01/15 05:27:45;;;;;;;35.03;12.07;;;;;;;-1.19;92.46;99730.38;2188407;81;20932;-79
2022/01/15 05:30:45;;;;;;;31.07;11.53;;;;;;;-1.17;92.46;99728.82;2177440;81;21020;-79
2022/01/15 05:33:45;;;;;;;37.27;10.87;;;;;;;-1.16;92.51;99727.66;2171985;81;20984;-79
2022/01/15 05:36:46;;;;;;;33.43;11.47;;;;;;;-1.16;92.36;99737.01;2172583;81;21016;-79
2022/01/15 05:39:46;;;;;;;33.93;11.13;;;;;;;-1.16;92.32;99745.58;2172644;81;21348;-79
2022/01/15 05:42:47;;;;;;;36.70;10.50;;;;;;;-1.12;92.21;99749.26;2172395;82;21762;-81
2022/01/15 05:45:48;;;;;;;36.90;10.93;;;;;;;-1.10;92.13;99749.87;2172628;82;20967;-79
2022/01/15 05:48:49;;;;;;;36.17;10.63;;;;;;;-1.08;91.96;99757.27;2172419;82;21388;-79
2022/01/15 05:51:49;;;;;;;40.67;11.57;;;;;;;-1.08;91.94;99752.15;2172281;81;20989;-79
2022/01/15 05:54:50;;;;;;;39.17;11.23;;;;;;;-1.08;91.76;99749.98;2172814;82;20953;-81
2022/01/15 05:57:50;;;;;;;31.53;9.70;;;;;;;-1.06;91.69;99757.38;2172803;82;20969;-81
2022/01/15 06:00:50;;;;;;;35.03;10.00;;;;;;;-1.03;91.56;99762.73;2172594;81;20988;-81
2022/01/15 06:03:51;;;;;;;32.07;10.73;;;;;;;-1.03;91.48;99761.45;2172754;81;21624;-82
2022/01/15 06:06:51;;;;;;;29.00;10.47;;;;;;;-1.02;91.33;99760.66;2172816;82;20956;-79
2022/01/15 06:09:53;;;;;;;34.73;11.00;;;;;;;-1.03;91.22;99766.57;2172742;81;20979;-80
2022/01/15 06:12:53;;;;;;;37.43;11.70;;;;;;;-1.06;91.04;99774.04;2171702;82;20952;-80
2022/01/15 06:15:53;;;;;;;29.80;11.60;;;;;;;-1.08;91.03;99773.04;2171712;81;20949;-80
2022/01/15 06:18:54;;;;;;;33.13;12.93;;;;;;;-1.05;91.13;99770.70;2172011;81;20953;-81
2022/01/15 06:21:54;;;;;;;36.37;11.87;;;;;;;-1.02;91.06;99767.07;2172624;81;21380;-79
2022/01/15 06:24:55;;;;;;;36.87;12.77;;;;;;;-1.00;90.70;99765.51;2172699;82;21325;-80
2022/01/15 06:27:58;;;;;;;34.07;11.87;;;;;;;-1.01;90.61;99764.62;2173255;81;21303;-79
2022/01/15 06:30:58;;;;;;;37.70;11.83;;;;;;;-1.01;90.35;99767.57;2172506;81;21060;-80
2022/01/15 06:33:58;;;;;;;32.03;11.20;;;;;;;-1.04;90.18;99764.40;2172301;81;20965;-79
2022/01/15 06:36:59;;;;;;;27.97;11.20;;;;;;;-1.07;90.17;99770.97;2171764;82;21298;-80
2022/01/15 06:40:00;;;;;;;35.17;12.67;;;;;;;-1.08;90.05;99777.77;2171480;82;20996;-80
2022/01/15 06:43:00;;;;;;;39.93;14.50;;;;;;;-1.12;90.02;99781.28;2172012;82;20972;-79
2022/01/15 06:46:01;;;;;;;49.47;15.07;;;;;;;-1.15;90.05;99786.19;2172254;81;21008;-80
2022/01/15 06:49:01;;;;;;;38.40;13.90;;;;;;;-1.20;90.11;99783.29;2172223;81;20977;-80
2022/01/15 06:52:02;;;;;;;51.63;16.37;;;;;;;-1.21;90.18;99785.74;2172424;81;20965;-79
2022/01/15 06:55:02;;;;;;;58.33;16.40;;;;;;;-1.21;90.17;99784.46;2172555;82;20996;-80
2022/01/15 06:58:03;;;;;;;41.80;15.07;;;;;;;-1.19;90.05;99786.75;2172364;81;20988;-80
2022/01/15 07:01:03;;;;;;;44.53;15.87;;;;;;;-1.20;90.08;99788.80;2172483;81;20993;-80
2022/01/15 07:04:04;;;;;;;44.50;14.70;;;;;;;-1.20;90.00;99784.97;2173132;81;21312;-81
2022/01/15 07:07:04;;;;;;;32.33;12.70;;;;;;;-1.17;89.99;99782.63;2172418;82;21309;-79
2022/01/15 07:10:04;;;;;;;33.00;12.77;;;;;;;-1.13;89.94;99794.87;2172111;81;21312;-80
2022/01/15 07:13:05;;;;;;;44.07;14.77;;;;;;;-1.10;89.59;99793.81;2172477;81;20980;-81
2022/01/15 07:16:06;;;;;;;35.93;13.50;;;;;;;-1.12;89.46;99796.66;2172169;81;21000;-81
2022/01/15 07:19:06;;;;;;;38.17;13.33;;;;;;;-1.10;89.49;99808.80;2172976;81;20969;-80
2022/01/15 07:22:07;;;;;;;36.63;14.60;;;;;;;-1.07;89.48;99814.14;2172988;81;20965;-80
2022/01/15 07:25:07;;;;;;;42.13;15.37;;;;;;;-1.02;89.36;99812.81;2172828;81;21352;-79
2022/01/15 07:28:08;;;;;;;36.67;16.13;;;;;;;-0.95;89.23;99815.42;2172756;82;20969;-80
2022/01/15 07:31:08;;;;;;;42.40;17.20;;;;;;;-0.89;88.81;99818.42;2182541;81;21067;-80
2022/01/15 07:34:09;;;;;;;36.83;16.57;;;;;;;-0.86;88.70;99815.23;2188647;81;20976;-82
2022/01/15 07:37:09;;;;;;;54.67;21.33;;;;;;;-0.83;88.51;99809.03;2189641;81;20980;-80
2022/01/15 07:40:10;;;;;;;52.63;23.03;;;;;;;-0.75;88.71;99811.37;2189071;81;20995;-80
2022/01/15 07:43:10;;;;;;;57.27;21.73;;;;;;;-0.71;87.96;99814.65;2188414;81;20992;-80
2022/01/15 07:46:11;;;;;;;62.27;24.47;;;;;;;-0.69;88.02;99811.80;2189412;81;20972;-80
2022/01/15 07:49:12;;;;;;;48.00;20.77;;;;;;;-0.64;87.78;99804.44;2189291;81;21370;-80
2022/01/15 07:52:12;;;;;;;51.17;23.93;;;;;;;-0.62;87.60;99809.67;2188880;81;21355;-80
2022/01/15 07:55:13;;;;;;;48.57;18.10;;;;;;;-0.59;87.87;99807.33;2188352;81;20948;-81
2022/01/15 07:58:13;;;;;;;50.23;16.77;;;;;;;-0.54;87.31;99813.28;2188830;81;20983;-80
2022/01/15 08:01:14;;;;;;;45.90;16.57;;;;;;;-0.53;87.33;99811.61;2189252;81;21370;-81
2022/01/15 08:04:14;;;;;;;44.30;18.17;;;;;;;-0.49;87.35;99817.45;2189163;81;20948;-81
2022/01/15 08:07:16;;;;;;;38.03;14.63;;;;;;;-0.39;87.00;99821.16;2189499;81;20948;-81
2022/01/15 08:10:16;;;;;;;38.83;15.03;;;;;;;-0.37;86.42;99818.30;2189255;81;21371;-81
2022/01/15 08:13:18;;;;;;;28.40;11.40;;;;;;;-0.30;86.91;99821.80;2189319;81;20979;-80
2022/01/15 08:16:19;;;;;;;40.40;13.77;;;;;;;-0.30;86.26;99819.23;2188620;81;20972;-80
2022/01/15 08:19:19;;;;;;;26.77;12.27;;;;;;;-0.28;86.57;99833.45;2189072;81;21338;-80
2022/01/15 08:22:20;;;;;;;29.40;12.57;;;;;;;-0.25;86.03;99839.69;2188750;81;21003;-79
2022/01/15 08:25:22;;;;;;;33.30;13.50;;;;;;;-0.20;86.27;99835.77;2189012;81;20972;-80
2022/01/15 08:28:23;;;;;;;29.63;13.13;;;;;;;-0.15;85.80;99838.27;2188843;81;20951;-80
2022/01/15 08:31:23;;;;;;;27.63;12.03;;;;;;;-0.06;85.63;99849.55;2189059;80;21019;-80
2022/01/15 08:34:24;;;;;;;30.33;11.57;;;;;;;0.04;85.67;99848.55;2189151;81;20956;-79
2022/01/15 08:37:25;;;;;;;31.60;11.40;;;;;;;0.09;85.58;99850.64;2189117;81;21015;-81
2022/01/15 08:40:25;;;;;;;29.70;11.67;;;;;;;0.19;85.46;99844.46;2189594;81;20960;-80
2022/01/15 08:43:26;;;;;;;31.47;10.83;;;;;;;0.23;84.21;99852.48;2188822;81;20972;-81
2022/01/15 08:46:26;;;;;;;28.83;11.77;;;;;;;0.29;84.99;99846.47;2189248;81;20916;-79
2022/01/15 08:49:27;;;;;;;28.17;10.33;;;;;;;0.33;83.97;99846.69;2189200;81;20932;-78
2022/01/15 08:52:27;;;;;;;27.00;10.23;;;;;;;0.35;84.33;99843.43;2189168;81;20952;-80
2022/01/15 08:55:29;;;;;;;28.87;11.73;;;;;;;0.38;84.12;99842.35;2188806;81;20975;-80
2022/01/15 08:58:29;;;;;;;35.20;13.07;;;;;;;0.46;83.98;99845.05;2188739;81;21311;-80
2022/01/15 09:01:30;;;;;;;35.53;15.90;;;;;;;0.45;83.26;99847.11;2188932;81;20984;-80
2022/01/15 09:04:30;;;;;;;34.50;14.27;;;;;;;0.51;84.03;99850.48;2189094;81;20948;-80
2022/01/15 09:07:31;;;;;;;31.73;11.40;;;;;;;0.54;82.78;99852.87;2189301;81;20987;-80
2022/01/15 09:10:31;;;;;;;30.07;13.00;;;;;;;0.54;82.37;99845.55;2189286;81;20936;-81
2022/01/15 09:13:32;;;;;;;27.83;11.13;;;;;;;0.52;83.03;99839.03;2189094;81;21367;-81
2022/01/15 09:16:32;;;;;;;36.80;12.43;;;;;;;0.43;82.15;99844.84;2188592;81;21387;-79
2022/01/15 09:19:33;;;;;;;32.07;11.57;;;;;;;0.43;82.47;99849.97;2188525;81;21348;-80
2022/01/15 09:22:33;;;;;;;31.77;13.57;;;;;;;0.45;82.28;99844.55;2189243;81;21376;-81
2022/01/15 09:25:34;;;;;;;33.07;12.27;;;;;;;0.45;82.32;99843.27;2188774;81;20944;-80
2022/01/15 09:31:53;;;;;;;35.23;13.17;;;;;;;0.39;81.44;99845.81;2188860;81;21454;-79
2022/01/15 09:34:54;;;;;;;31.67;13.23;;;;;;;0.44;81.76;99848.30;2189205;81;20971;-79
2022/01/15 09:37:54;;;;;;;26.67;10.43;;;;;;;0.57;81.57;99849.22;2188665;81;21023;-79
2022/01/15 09:40:54;;;;;;;31.07;12.07;;;;;;;0.64;80.69;99839.84;2188976;81;21328;-80
2022/01/15 09:43:55;;;;;;;31.80;13.60;;;;;;;0.67;80.99;99846.87;2188463;81;21427;-80
2022/01/15 09:46:55;;;;;;;34.93;14.33;;;;;;;0.77;81.58;99840.66;2189193;81;20936;-79
2022/01/15 09:49:56;;;;;;;44.30;16.10;;;;;;;0.91;81.12;99843.77;2188497;81;20980;-79
2022/01/15 09:52:56;;;;;;;42.03;15.57;;;;;;;1.05;81.58;99849.42;2188335;81;21000;-79
2022/01/15 09:55:57;;;;;;;32.03;13.40;;;;;;;1.15;80.41;99845.77;2189106;81;20937;-80
2022/01/15 09:58:57;;;;;;;34.57;13.33;;;;;;;1.18;80.69;99842.98;2189092;81;20975;-80
2022/01/15 10:02:02;;;;;;;33.03;13.60;;;;;;;1.25;80.11;99840.02;2189476;81;21004;-80
2022/01/15 10:05:00;;;;;;;43.10;13.27;;;;;;;1.27;79.93;99824.29;2189007;81;21402;-83
2022/01/15 10:08:01;;;;;;;35.30;12.00;;;;;;;1.26;79.79;99835.37;2189376;81;20952;-82
2022/01/15 10:11:07;;;;;;;38.60;13.90;;;;;;;1.30;80.01;99831.31;2189561;81;21375;-81
2022/01/15 10:14:04;;;;;;;40.30;14.53;;;;;;;1.33;79.76;99835.36;2189010;81;21019;-82
2022/01/15 10:17:05;;;;;;;31.47;11.93;;;;;;;1.39;79.92;99842.58;2189362;81;20936;-80
2022/01/15 10:20:06;;;;;;;31.80;9.63;;;;;;;1.43;79.48;99835.55;2189265;81;20976;-81
2022/01/15 10:23:06;;;;;;;26.77;10.43;;;;;;;1.44;78.77;99830.50;2189299;81;20996;-81
2022/01/15 10:26:06;;;;;;;18.43;9.10;;;;;;;1.49;79.30;99832.08;2189226;81;20987;-81
2022/01/15 10:29:07;;;;;;;28.23;10.87;;;;;;;1.47;77.03;99831.09;2188776;81;20935;-80
2022/01/15 10:32:07;;;;;;;32.97;12.27;;;;;;;1.46;78.78;99825.05;2188231;81;21007;-82
2022/01/15 10:35:08;;;;;;;35.47;13.00;;;;;;;1.55;77.99;99826.03;2187451;81;20951;-81
2022/01/15 10:38:09;;;;;;;25.23;10.80;;;;;;;1.58;78.30;99826.22;2188725;81;20960;-80
2022/01/15 10:41:09;;;;;;;30.50;12.70;;;;;;;1.59;75.90;99827.60;2188972;81;20975;-80
2022/01/15 10:44:10;;;;;;;28.40;10.37;;;;;;;1.61;77.92;99822.55;2189047;81;20920;-81
2022/01/15 10:47:10;;;;;;;32.30;9.93;;;;;;;1.65;76.27;99817.20;2188798;81;20948;-82
2022/01/15 10:50:11;;;;;;;28.33;10.73;;;;;;;1.64;76.00;99833.44;2188424;81;20988;-81
2022/01/15 10:53:12;;;;;;;33.83;12.10;;;;;;;1.69;76.95;99835.50;2188652;81;20983;-81
2022/01/15 10:56:13;;;;;;;22.63;10.40;;;;;;;1.77;76.32;99827.89;2188689;81;20936;-80
2022/01/15 10:59:16;;;;;;;30.60;11.30;;;;;;;1.85;76.29;99834.40;2188805;81;20944;-82
2022/01/15 11:02:17;;;;;;;32.03;12.67;;;;;;;1.86;75.25;99830.14;2187850;81;20976;-81
2022/01/15 11:05:17;;;;;;;33.17;13.30;;;;;;;1.90;75.60;99833.39;2188359;81;20951;-82
2022/01/15 11:08:18;;;;;;;36.87;11.53;;;;;;;1.93;75.64;99822.00;2188115;81;20991;-82
2022/01/15 11:11:20;;;;;;;35.63;12.73;;;;;;;1.99;73.90;99825.34;2187789;81;21432;-81
2022/01/15 11:14:20;;;;;;;25.27;10.83;;;;;;;2.02;74.38;99826.42;2187658;81;21069;-80
2022/01/15 11:17:21;;;;;;;30.13;9.77;;;;;;;2.08;73.79;99817.78;2188063;81;20989;-82
2022/01/15 11:20:21;;;;;;;30.43;10.03;;;;;;;2.08;72.65;99825.91;2188674;81;21347;-82
2022/01/15 11:23:22;;;;;;;22.60;9.03;;;;;;;2.11;73.11;99826.09;2188469;81;21406;-81
2022/01/15 11:26:24;;;;;;;25.90;9.17;;;;;;;2.18;72.45;99833.39;2188514;81;21320;-80
2022/01/15 11:29:24;;;;;;;28.33;10.53;;;;;;;2.19;71.95;99822.29;2189244;81;21420;-82
2022/01/15 11:32:25;;;;;;;30.37;10.63;;;;;;;2.24;71.58;99814.44;2188960;81;21022;-82
2022/01/15 11:35:25;;;;;;;30.57;10.90;;;;;;;2.29;70.63;99819.86;2189268;81;20956;-82
2022/01/15 11:38:26;;;;;;;25.43;8.70;;;;;;;2.31;71.70;99819.16;2189387;81;20968;-82
2022/01/15 11:41:26;;;;;;;25.33;9.20;;;;;;;2.35;71.14;99812.10;2189262;81;21004;-83
2022/01/15 11:44:27;;;;;;;21.77;8.33;;;;;;;2.41;71.09;99814.15;2188838;81;20948;-82
2022/01/15 11:47:27;;;;;;;27.80;9.40;;;;;;;2.45;70.06;99815.70;2188621;81;21343;-81
2022/01/15 11:50:28;;;;;;;23.87;8.23;;;;;;;2.50;69.77;99815.58;2189215;81;20992;-81
2022/01/15 11:53:28;;;;;;;23.37;7.20;;;;;;;2.54;70.25;99814.07;2188692;81;20928;-81
2022/01/15 11:56:29;;;;;;;18.97;7.70;;;;;;;2.53;65.41;99815.77;2188487;81;20952;-80
2022/01/15 11:59:29;;;;;;;22.63;8.00;;;;;;;2.56;66.31;99806.92;2188480;81;20912;-81
2022/01/15 12:02:30;;;;;;;19.77;8.87;;;;;;;2.59;65.95;99804.03;2187548;81;20992;-81
2022/01/15 12:05:31;;;;;;;23.03;7.70;;;;;;;2.62;65.58;99805.13;2188200;81;20964;-80
2022/01/15 12:08:32;;;;;;;23.37;9.00;;;;;;;2.67;66.86;99813.13;2188065;81;20956;-81
2022/01/15 12:11:33;;;;;;;20.93;8.43;;;;;;;2.74;67.26;99802.37;2187591;81;20952;-80
2022/01/15 12:14:34;;;;;;;19.87;7.70;;;;;;;2.78;65.21;99813.36;2187677;81;20984;-80
2022/01/15 12:17:34;;;;;;;20.27;9.73;;;;;;;2.79;64.71;99813.44;2188146;81;21011;-82
2022/01/15 12:20:35;;;;;;;19.57;7.40;;;;;;;2.85;64.64;99809.03;2187758;81;20940;-81
2022/01/15 12:23:36;;;;;;;17.37;6.57;;;;;;;2.89;64.89;99803.25;2187756;81;21459;-81
2022/01/15 12:26:37;;;;;;;18.03;7.13;;;;;;;2.92;64.22;99815.03;2187764;81;20952;-82
2022/01/15 12:29:37;;;;;;;19.40;7.13;;;;;;;2.94;62.37;99821.17;2187755;81;20940;-80
2022/01/15 12:32:39;;;;;;;17.10;7.10;;;;;;;2.92;62.68;99804.72;2176298;81;20984;-82
2022/01/15 12:35:40;;;;;;;20.13;8.10;;;;;;;2.94;62.72;99813.83;2172003;81;21383;-82
2022/01/15 12:38:40;;;;;;;14.57;6.73;;;;;;;2.93;63.82;99809.08;2172160;82;20972;-81
2022/01/15 12:41:40;;;;;;;25.97;7.70;;;;;;;2.93;63.00;99797.87;2172292;82;21016;-82
2022/01/15 12:44:41;;;;;;;18.77;7.80;;;;;;;2.93;63.58;99800.05;2172720;82;20949;-80
2022/01/15 12:47:46;;;;;;;25.17;8.57;;;;;;;2.92;63.54;99798.27;2172620;81;20992;-80
2022/01/15 12:50:47;;;;;;;;;;;;;;;2.91;63.83;99804.23;2175151;82;20987;-81
2022/01/15 12:53:47;;;;;;;19.43;7.03;;;;;;;2.89;63.71;99798.09;2172388;81;20140;-81
2022/01/15 12:56:48;;;;;;;17.50;7.33;;;;;;;2.86;62.85;99800.50;2172619;82;20953;-79
2022/01/15 12:59:48;;;;;;;21.47;7.80;;;;;;;2.84;63.26;99807.26;2172221;81;20965;-80
2022/01/15 13:02:49;;;;;;;22.40;8.90;;;;;;;2.83;64.10;99804.19;2171886;82;21012;-81
2022/01/15 13:05:49;;;;;;;19.83;7.23;;;;;;;2.84;64.19;99800.81;2171830;82;20940;-80
2022/01/15 13:08:50;;;;;;;25.47;9.17;;;;;;;2.82;63.94;99792.99;2172041;81;21462;-80
2022/01/15 13:11:50;;;;;;;22.60;8.57;;;;;;;2.82;63.61;99797.26;2171763;81;21289;-79
2022/01/15 13:14:50;;;;;;;20.50;7.90;;;;;;;2.81;63.75;99795.08;2171456;82;20945;-81
2022/01/15 13:17:51;;;;;;;20.10;8.03;;;;;;;2.81;63.40;99801.53;2172705;82;20937;-81
2022/01/15 13:20:53;;;;;;;23.53;9.00;;;;;;;2.79;62.66;99798.38;2172586;82;20984;-79
2022/01/15 13:23:54;;;;;;;24.93;9.90;;;;;;;2.76;64.45;99802.06;2172127;82;21105;-82
2022/01/15 13:26:57;;;;;;;29.77;9.50;;;;;;;2.75;64.44;99812.78;2172988;82;20952;-81
2022/01/15 13:29:57;;;;;;;24.90;9.10;;;;;;;2.74;63.04;99808.82;2172792;81;20960;-80
2022/01/15 13:32:57;;;;;;;27.73;9.63;;;;;;;2.70;64.63;99810.33;2172588;81;21008;-81
2022/01/15 13:35:58;;;;;;;23.70;8.83;;;;;;;2.69;63.81;99815.00;2172534;82;20956;-81
2022/01/15 13:38:58;;;;;;;27.63;9.67;;;;;;;2.68;65.06;99820.06;2172856;82;20949;-81
2022/01/15 13:41:59;;;;;;;27.97;9.53;;;;;;;2.63;64.07;99822.38;2172248;82;21020;-80
2022/01/15 13:44:59;;;;;;;37.00;11.27;;;;;;;2.59;64.75;99823.36;2172568;82;20964;-83
2022/01/15 13:47:59;;;;;;;31.40;10.73;;;;;;;2.53;64.21;99827.36;2172407;81;20948;-81
2022/01/15 13:54:19;;;;;;;25.13;10.53;;;;;;;2.45;65.37;99831.57;2172690;82;20976;-81
2022/01/15 13:57:19;;;;;;;20.30;10.20;;;;;;;2.40;65.14;99839.42;2172829;82;20949;-81
2022/01/15 14:00:20;;;;;;;28.70;10.70;;;;;;;2.35;65.47;99831.42;2172815;81;20933;-83
2022/01/15 14:03:20;;;;;;;25.20;10.37;;;;;;;2.30;64.65;99830.26;2172348;82;21004;-80
2022/01/15 14:06:21;;;;;;;28.27;10.07;;;;;;;2.26;65.55;99829.98;2172849;81;20930;-80
2022/01/15 14:09:21;;;;;;;25.73;11.40;;;;;;;2.22;65.95;99837.92;2172757;82;21025;-81
2022/01/15 14:12:22;;;;;;;28.00;11.83;;;;;;;2.17;65.59;99840.22;2172668;81;20960;-82
2022/01/15 14:15:22;;;;;;;29.07;12.80;;;;;;;2.11;66.55;99838.56;2172868;82;20981;-82
2022/01/15 14:18:30;;;;;;;34.90;12.90;;;;;;;2.08;66.30;99837.49;2172865;81;20960;-81
2022/01/15 14:21:40;;;;;;;31.90;12.40;;;;;;;2.03;66.87;99836.32;2171804;81;21352;-82
2022/01/15 14:24:30;;;;;;;32.93;12.83;;;;;;;1.96;66.67;99835.06;2171915;81;20925;-81
2022/01/15 14:27:31;;;;;;;31.37;13.53;;;;;;;1.90;66.65;99846.27;2172979;82;21349;-82